createdAt,value
2018-02-01T00:00:09.261Z,4.99
2018-02-01T00:02:36.820Z,4.90
2018-02-01T00:05:05.261Z,4.79
2018-02-01T00:07:33.065Z,4.73
2018-02-01T00:10:00.639Z,4.73
2018-02-01T00:12:28.283Z,4.73
2018-02-01T00:14:55.920Z,4.69
2018-02-01T00:17:23.550Z,4.65
2018-02-01T00:19:51.708Z,4.60
2018-02-01T00:22:19.462Z,4.57
2018-02-01T00:24:47.039Z,4.64
2018-02-01T00:27:14.612Z,4.60
2018-02-01T00:29:42.219Z,4.61
2018-02-01T00:32:09.785Z,4.61
2018-02-01T00:34:37.399Z,4.55
2018-02-01T00:37:05.264Z,4.54
2018-02-01T00:39:32.858Z,4.43
2018-02-01T00:42:01.200Z,4.37
2018-02-01T00:44:28.915Z,4.35
2018-02-01T00:46:56.497Z,4.39
2018-02-01T00:49:24.088Z,4.42
2018-02-01T00:51:52.018Z,4.39
2018-02-01T00:54:19.594Z,4.38
2018-02-01T00:56:47.190Z,4.41
2018-02-01T00:59:14.922Z,4.36
2018-02-01T01:01:42.545Z,4.36
2018-02-01T01:04:10.188Z,4.34
2018-02-01T01:06:37.816Z,4.32
2018-02-01T01:09:05.453Z,4.32
2018-02-01T01:11:33.031Z,4.32
2018-02-01T01:14:00.691Z,4.26
2018-02-01T01:16:28.271Z,4.29
2018-02-01T01:18:55.909Z,4.29
2018-02-01T01:21:23.550Z,4.28
2018-02-01T01:23:51.121Z,4.26
2018-02-01T01:26:18.700Z,4.25
2018-02-01T01:28:46.434Z,4.23
2018-02-01T01:31:14.025Z,4.24
2018-02-01T01:33:41.619Z,4.22
2018-02-01T01:36:09.389Z,4.18
2018-02-01T01:38:36.961Z,4.18
2018-02-01T01:41:04.551Z,4.13
2018-02-01T01:43:32.254Z,4.12
2018-02-01T01:46:10.691Z,4.09
2018-02-01T01:48:38.314Z,3.98
2018-02-01T01:51:05.908Z,3.95
2018-02-01T01:53:33.505Z,3.94
2018-02-01T01:56:01.412Z,3.92
2018-02-01T01:58:29.047Z,3.90
2018-02-01T02:00:56.691Z,3.87
2018-02-01T02:03:24.315Z,3.79
2018-02-01T02:05:51.941Z,3.72
2018-02-01T02:08:19.905Z,3.64
2018-02-01T02:10:47.747Z,3.61
2018-02-01T02:13:15.311Z,3.62
2018-02-01T02:15:42.888Z,3.61
2018-02-01T02:18:10.535Z,3.57
2018-02-01T02:20:38.125Z,3.57
2018-02-01T02:23:05.776Z,3.54
2018-02-01T02:25:33.417Z,3.56
2018-02-01T02:28:01.017Z,3.56
2018-02-01T02:30:28.717Z,3.58
2018-02-01T02:32:56.979Z,3.53
2018-02-01T02:35:24.566Z,3.49
2018-02-01T02:37:52.180Z,3.45
2018-02-01T02:40:19.812Z,3.42
2018-02-01T02:42:47.410Z,3.43
2018-02-01T02:45:15.059Z,3.41
2018-02-01T02:47:42.849Z,3.42
2018-02-01T02:50:10.430Z,3.38
2018-02-01T02:52:38.064Z,3.31
2018-02-01T02:55:05.980Z,3.33
2018-02-01T02:57:33.567Z,3.32
2018-02-01T03:00:01.142Z,3.33
2018-02-01T03:02:28.770Z,3.31
2018-02-01T03:04:56.338Z,3.30
2018-02-01T03:07:23.895Z,3.27
2018-02-01T03:09:51.523Z,3.26
2018-02-01T03:12:19.100Z,3.24
2018-02-01T03:14:46.674Z,3.27
2018-02-01T03:17:14.338Z,3.23
2018-02-01T03:19:41.916Z,3.22
2018-02-01T03:22:09.500Z,3.20
2018-02-01T03:24:37.222Z,3.22
2018-02-01T03:27:04.865Z,3.20
2018-02-01T03:29:32.501Z,3.19
2018-02-01T03:32:00.354Z,3.19
2018-02-01T03:34:27.928Z,3.16
2018-02-01T03:36:55.504Z,3.16
2018-02-01T03:39:23.136Z,3.17
2018-02-01T03:41:50.768Z,3.17
2018-02-01T03:44:18.343Z,3.22
2018-02-01T03:46:45.988Z,3.19
2018-02-01T03:49:13.565Z,3.17
2018-02-01T03:51:41.143Z,3.10
2018-02-01T03:54:08.779Z,3.13
2018-02-01T03:56:36.545Z,3.18
2018-02-01T03:59:04.157Z,3.16
2018-02-01T04:01:31.779Z,3.17
2018-02-01T04:03:59.410Z,3.14
2018-02-01T04:06:26.979Z,3.14
2018-02-01T04:08:54.667Z,3.18
2018-02-01T04:11:22.317Z,3.23
2018-02-01T04:13:50.547Z,3.26
2018-02-01T04:16:18.409Z,3.25
2018-02-01T04:18:45.969Z,3.24
2018-02-01T04:21:14.077Z,3.23
2018-02-01T04:23:41.705Z,3.25
2018-02-01T04:26:09.309Z,3.27
2018-02-01T04:28:36.893Z,3.24
2018-02-01T04:31:04.525Z,3.22
2018-02-01T04:33:32.123Z,3.18
2018-02-01T04:35:59.719Z,3.22
2018-02-01T04:38:27.440Z,3.16
2018-02-01T04:40:55.070Z,3.12
2018-02-01T04:43:22.650Z,3.12
2018-02-01T04:45:50.514Z,3.06
2018-02-01T04:48:18.116Z,3.05
2018-02-01T04:50:45.733Z,3.01
2018-02-01T04:53:13.378Z,2.96
2018-02-01T04:55:41.304Z,2.95
2018-02-01T04:58:09.221Z,2.93
2018-02-01T05:00:36.874Z,2.95
2018-02-01T05:03:04.465Z,2.98
2018-02-01T05:05:32.031Z,3.01
2018-02-01T05:07:59.761Z,3.03
2018-02-01T05:10:27.340Z,3.06
2018-02-01T05:12:54.899Z,3.07
2018-02-01T05:15:22.567Z,3.03
2018-02-01T05:17:50.150Z,3.01
2018-02-01T05:20:17.898Z,3.00
2018-02-01T05:22:45.540Z,2.97
2018-02-01T05:25:13.198Z,2.96
2018-02-01T05:27:40.844Z,2.98
2018-02-01T05:30:08.701Z,3.01
2018-02-01T05:32:36.358Z,2.97
2018-02-01T05:35:03.966Z,2.95
2018-02-01T05:37:31.648Z,2.97
2018-02-01T05:39:59.343Z,3.01
2018-02-01T05:42:26.955Z,3.03
2018-02-01T05:44:54.703Z,3.03
2018-02-01T05:47:22.270Z,3.02
2018-02-01T05:49:49.864Z,2.98
2018-02-01T05:52:17.796Z,3.00
2018-02-01T05:54:45.376Z,3.02
2018-02-01T05:57:13.075Z,3.09
2018-02-01T05:59:40.849Z,3.32
2018-02-01T06:02:08.539Z,3.74
2018-02-01T06:04:36.921Z,4.18
2018-02-01T06:07:04.585Z,4.59
2018-02-01T06:09:32.204Z,5.01
2018-02-01T06:11:59.801Z,5.51
2018-02-01T06:14:27.432Z,5.99
2018-02-01T06:16:55.000Z,6.47
2018-02-01T06:19:22.724Z,6.87
2018-02-01T06:21:50.463Z,7.29
2018-02-01T06:24:18.076Z,7.75
2018-02-01T06:26:45.663Z,8.14
2018-02-01T06:29:13.337Z,8.44
2018-02-01T06:31:40.947Z,8.86
2018-02-01T06:34:08.543Z,9.11
2018-02-01T06:36:36.202Z,9.22
2018-02-01T06:39:03.866Z,9.53
2018-02-01T06:41:31.539Z,10.04
2018-02-01T06:43:59.184Z,10.52
2018-02-01T06:46:26.779Z,10.59
2018-02-01T06:48:54.381Z,10.54
2018-02-01T06:51:22.116Z,10.50
2018-02-01T06:53:49.785Z,10.10
2018-02-01T06:56:17.473Z,9.99
2018-02-01T06:58:45.361Z,10.03
2018-02-01T07:01:13.468Z,9.99
2018-02-01T07:03:41.465Z,10.13
2018-02-01T07:06:09.126Z,9.92
2018-02-01T07:08:36.722Z,9.99
2018-02-01T07:11:04.309Z,10.17
2018-02-01T07:13:32.004Z,10.32
2018-02-01T07:16:00.768Z,10.36
2018-02-01T07:18:28.476Z,10.53
2018-02-01T07:20:56.270Z,10.78
2018-02-01T07:23:23.961Z,10.97
2018-02-01T07:25:51.563Z,10.94
2018-02-01T07:28:19.300Z,10.84
2018-02-01T07:30:46.974Z,10.98
2018-02-01T07:33:14.865Z,10.65
2018-02-01T07:35:42.536Z,10.43
2018-02-01T07:38:10.178Z,10.41
2018-02-01T07:40:37.806Z,10.52
2018-02-01T07:43:05.666Z,10.77
2018-02-01T07:45:33.284Z,11.00
2018-02-01T07:48:00.961Z,11.10
2018-02-01T07:50:28.619Z,11.18
2018-02-01T07:52:56.192Z,11.36
2018-02-01T07:55:23.787Z,11.39
2018-02-01T07:57:51.413Z,11.46
2018-02-01T08:00:18.994Z,11.52
2018-02-01T08:02:46.717Z,11.46
2018-02-01T08:05:14.470Z,11.35
2018-02-01T08:07:42.118Z,11.59
2018-02-01T08:10:09.756Z,11.50
2018-02-01T08:12:37.396Z,11.58
2018-02-01T08:15:05.027Z,11.79
2018-02-01T08:17:43.380Z,11.56
2018-02-01T08:20:11.751Z,11.82
2018-02-01T08:22:39.412Z,12.00
2018-02-01T08:25:07.072Z,11.82
2018-02-01T08:27:34.664Z,12.20
2018-02-01T08:30:02.253Z,12.20
2018-02-01T08:32:30.035Z,12.59
2018-02-01T08:34:57.686Z,12.71
2018-02-01T08:37:25.296Z,13.21
2018-02-01T08:39:52.983Z,13.39
2018-02-01T08:42:20.617Z,13.31
2018-02-01T08:44:48.560Z,12.79
2018-02-01T08:47:16.193Z,13.28
2018-02-01T08:49:43.772Z,13.74
2018-02-01T08:52:11.584Z,13.76
2018-02-01T08:54:39.266Z,13.61
2018-02-01T08:57:06.945Z,13.75
2018-02-01T08:59:34.515Z,13.70
2018-02-01T09:02:02.167Z,13.85
2018-02-01T09:04:30.099Z,13.94
2018-02-01T09:06:57.698Z,13.85
2018-02-01T09:09:25.332Z,13.23
2018-02-01T09:11:52.934Z,13.29
2018-02-01T09:14:20.544Z,13.60
2018-02-01T09:16:48.203Z,14.15
2018-02-01T09:19:15.796Z,14.24
2018-02-01T09:21:43.443Z,14.56
2018-02-01T09:24:11.259Z,14.63
2018-02-01T09:26:38.862Z,14.71
2018-02-01T09:29:06.497Z,14.14
2018-02-01T09:31:34.207Z,14.18
2018-02-01T09:34:01.890Z,14.57
2018-02-01T09:36:30.092Z,15.49
2018-02-01T09:38:57.761Z,15.57
2018-02-01T09:41:25.366Z,15.99
2018-02-01T09:43:53.080Z,16.15
2018-02-01T09:46:20.814Z,16.38
2018-02-01T09:48:48.569Z,17.38
2018-02-01T09:51:16.186Z,17.49
2018-02-01T09:53:44.042Z,17.29
2018-02-01T09:56:11.646Z,16.09
2018-02-01T09:58:39.233Z,16.37
2018-02-01T10:01:07.428Z,17.01
2018-02-01T10:03:35.039Z,16.50
2018-02-01T10:06:02.752Z,17.26
2018-02-01T10:08:30.444Z,17.35
2018-02-01T10:10:58.067Z,17.30
2018-02-01T10:13:25.781Z,17.18
2018-02-01T10:15:53.743Z,16.50
2018-02-01T10:18:21.355Z,15.66
2018-02-01T10:20:48.943Z,15.47
2018-02-01T10:23:16.727Z,16.00
2018-02-01T10:25:44.361Z,15.24
2018-02-01T10:28:11.944Z,15.30
2018-02-01T10:30:39.681Z,15.63
2018-02-01T10:33:07.268Z,15.93
2018-02-01T10:35:34.941Z,15.83
2018-02-01T10:38:02.686Z,15.52
2018-02-01T10:40:30.299Z,15.62
2018-02-01T10:42:58.776Z,15.06
2018-02-01T10:45:26.693Z,14.84
2018-02-01T10:47:54.341Z,14.98
2018-02-01T10:50:21.967Z,14.98
2018-02-01T10:52:49.632Z,14.94
2018-02-01T10:55:17.246Z,15.15
2018-02-01T10:57:44.844Z,15.11
2018-02-01T11:00:12.622Z,14.87
2018-02-01T11:02:40.189Z,15.04
2018-02-01T11:05:07.846Z,15.21
2018-02-01T11:07:35.650Z,15.58
2018-02-01T11:10:03.278Z,15.48
2018-02-01T11:12:30.965Z,15.79
2018-02-01T11:14:58.952Z,15.77
2018-02-01T11:17:27.446Z,15.98
2018-02-01T11:19:55.086Z,16.63
2018-02-01T11:22:22.901Z,16.72
2018-02-01T11:24:50.495Z,16.86
2018-02-01T11:27:18.151Z,17.37
2018-02-01T11:29:45.822Z,17.34
2018-02-01T11:32:13.498Z,17.91
2018-02-01T11:34:41.925Z,19.07
2018-02-01T11:37:09.695Z,20.99
2018-02-01T11:39:37.362Z,21.92
2018-02-01T11:42:04.963Z,20.73
2018-02-01T11:44:32.647Z,20.37
2018-02-01T11:47:00.313Z,20.58
2018-02-01T11:49:27.891Z,21.84
2018-02-01T11:51:55.573Z,21.38
2018-02-01T11:54:23.162Z,21.20
2018-02-01T11:56:50.820Z,21.39
2018-02-01T11:59:18.473Z,20.79
2018-02-01T12:01:46.085Z,21.02
2018-02-01T12:04:13.700Z,21.25
2018-02-01T12:06:41.381Z,21.04
2018-02-01T12:09:09.235Z,20.77
2018-02-01T12:11:36.905Z,20.29
2018-02-01T12:14:05.227Z,19.60
2018-02-01T12:16:32.847Z,20.07
2018-02-01T12:19:00.452Z,20.97
2018-02-01T12:21:28.424Z,21.23
2018-02-01T12:23:56.021Z,21.73
2018-02-01T12:26:25.371Z,21.27
2018-02-01T12:28:52.999Z,20.86
2018-02-01T12:31:21.120Z,21.54
2018-02-01T12:33:48.722Z,21.53
2018-02-01T12:36:16.374Z,21.78
2018-02-01T12:38:44.005Z,22.30
2018-02-01T12:41:11.590Z,20.92
2018-02-01T12:43:39.244Z,20.64
2018-02-01T12:46:06.875Z,19.74
2018-02-01T12:48:34.456Z,21.13
2018-02-01T12:51:02.114Z,21.89
2018-02-01T12:53:29.742Z,22.30
2018-02-01T12:55:57.451Z,22.89
2018-02-01T12:58:25.240Z,22.15
2018-02-01T13:00:52.827Z,21.50
2018-02-01T13:03:20.448Z,22.18
2018-02-01T13:05:48.144Z,22.89
2018-02-01T13:08:15.802Z,23.76
2018-02-01T13:10:43.529Z,23.33
2018-02-01T13:13:11.246Z,23.16
2018-02-01T13:15:38.860Z,23.04
2018-02-01T13:18:06.470Z,22.30
2018-02-01T13:20:34.169Z,21.55
2018-02-01T13:23:01.772Z,20.45
2018-02-01T13:25:29.389Z,20.02
2018-02-01T13:27:57.025Z,19.43
2018-02-01T13:30:26.626Z,18.97
2018-02-01T13:32:54.193Z,20.19
2018-02-01T13:35:21.975Z,19.14
2018-02-01T13:37:49.749Z,18.97
2018-02-01T13:40:17.466Z,18.84
2018-02-01T13:42:45.117Z,18.63
2018-02-01T13:45:12.703Z,17.67
2018-02-01T13:47:40.346Z,18.41
2018-02-01T13:50:08.254Z,18.81
2018-02-01T13:52:35.929Z,19.45
2018-02-01T13:55:03.703Z,18.90
2018-02-01T13:57:31.337Z,19.07
2018-02-01T13:59:58.962Z,19.38
2018-02-01T14:02:27.541Z,18.97
2018-02-01T14:04:55.208Z,18.29
2018-02-01T14:07:22.820Z,17.61
2018-02-01T14:09:50.423Z,17.25
2018-02-01T14:12:18.517Z,16.64
2018-02-01T14:14:46.165Z,16.13
2018-02-01T14:17:14.610Z,15.80
2018-02-01T14:19:42.345Z,15.50
2018-02-01T14:22:09.986Z,15.11
2018-02-01T14:24:37.667Z,15.03
2018-02-01T14:27:05.318Z,14.82
2018-02-01T14:29:32.994Z,14.78
2018-02-01T14:32:00.608Z,14.66
2018-02-01T14:34:28.318Z,14.49
2018-02-01T14:36:56.010Z,14.43
2018-02-01T14:39:23.727Z,14.27
2018-02-01T14:41:51.406Z,14.08
2018-02-01T14:44:19.039Z,13.93
2018-02-01T14:46:46.618Z,13.72
2018-02-01T14:49:14.281Z,13.50
2018-02-01T14:51:41.855Z,13.35
2018-02-01T14:54:10.064Z,13.19
2018-02-01T14:56:37.730Z,13.12
2018-02-01T14:59:05.322Z,13.07
2018-02-01T15:01:32.937Z,13.05
2018-02-01T15:04:00.589Z,13.06
2018-02-01T15:06:28.203Z,12.98
2018-02-01T15:08:55.778Z,12.86
2018-02-01T15:11:23.547Z,12.73
2018-02-01T15:13:51.194Z,12.61
2018-02-01T15:16:18.866Z,12.49
2018-02-01T15:18:46.513Z,12.41
2018-02-01T15:21:14.116Z,12.26
2018-02-01T15:23:42.324Z,12.07
2018-02-01T15:26:10.261Z,11.87
2018-02-01T15:28:37.859Z,11.70
2018-02-01T15:31:05.545Z,11.41
2018-02-01T15:33:33.181Z,11.24
2018-02-01T15:36:00.813Z,11.11
2018-02-01T15:38:28.518Z,10.98
2018-02-01T15:40:56.196Z,10.87
2018-02-01T15:43:23.863Z,10.77
2018-02-01T15:45:51.569Z,10.64
2018-02-01T15:48:19.471Z,10.50
2018-02-01T15:50:47.173Z,10.38
2018-02-01T15:53:14.955Z,10.30
2018-02-01T15:55:43.010Z,10.22
2018-02-01T15:58:10.752Z,10.18
2018-02-01T16:00:38.505Z,10.14
2018-02-01T16:03:06.347Z,10.07
2018-02-01T16:05:34.516Z,10.06
2018-02-01T16:08:02.418Z,10.03
2018-02-01T16:10:30.313Z,9.98
2018-02-01T16:12:58.803Z,9.90
2018-02-01T16:15:27.045Z,9.85
2018-02-01T16:17:54.950Z,9.80
2018-02-01T16:20:22.812Z,9.73
2018-02-01T16:22:50.634Z,9.67
2018-02-01T16:25:18.483Z,9.63
2018-02-01T16:27:46.370Z,9.60
2018-02-01T16:30:14.231Z,9.57
2018-02-01T16:32:42.226Z,9.57
2018-02-01T16:35:10.130Z,9.56
2018-02-01T16:37:38.048Z,9.51
2018-02-01T16:40:05.990Z,9.40
2018-02-01T16:42:33.907Z,9.21
2018-02-01T16:45:01.758Z,9.07
2018-02-01T16:47:29.802Z,8.95
2018-02-01T16:49:57.687Z,8.86
2018-02-01T16:52:25.589Z,8.78
2018-02-01T16:54:53.496Z,8.65
2018-02-01T16:57:21.380Z,8.54
2018-02-01T16:59:49.269Z,8.43
2018-02-01T17:02:17.334Z,8.43
2018-02-01T17:04:45.218Z,8.43
2018-02-01T17:07:13.098Z,8.44
2018-02-01T17:09:41.776Z,8.43
2018-02-01T17:12:09.673Z,8.38
2018-02-01T17:14:37.630Z,8.34
2018-02-01T17:17:05.676Z,8.27
2018-02-01T17:19:33.579Z,8.22
2018-02-01T17:22:02.026Z,8.17
2018-02-01T17:24:30.717Z,8.07
2018-02-01T17:26:58.620Z,7.94
2018-02-01T17:29:26.490Z,7.90
2018-02-01T17:31:54.524Z,7.86
2018-02-01T17:34:23.203Z,7.93
2018-02-01T17:36:51.128Z,7.96
2018-02-01T17:39:19.083Z,7.96
2018-02-01T17:41:46.989Z,7.87
2018-02-01T17:44:14.854Z,7.83
2018-02-01T17:46:42.806Z,7.83
2018-02-01T17:49:10.678Z,7.85
2018-02-01T17:51:38.587Z,7.75
2018-02-01T17:54:06.750Z,7.64
2018-02-01T17:56:34.633Z,7.50
2018-02-01T17:59:02.530Z,7.45
2018-02-01T18:01:30.584Z,7.46
2018-02-01T18:03:58.464Z,7.45
2018-02-01T18:06:26.355Z,7.39
2018-02-01T18:08:54.322Z,7.34
2018-02-01T18:11:22.214Z,7.28
2018-02-01T18:13:50.089Z,7.23
2018-02-01T18:16:18.056Z,7.13
2018-02-01T18:18:46.109Z,7.05
2018-02-01T18:21:14.008Z,7.04
2018-02-01T18:23:41.961Z,7.03
2018-02-01T18:26:09.865Z,7.04
2018-02-01T18:28:37.777Z,6.97
2018-02-01T18:31:05.782Z,6.91
2018-02-01T18:33:33.764Z,6.92
2018-02-01T18:36:01.667Z,6.92
2018-02-01T18:38:29.647Z,6.89
2018-02-01T18:40:57.631Z,6.87
2018-02-01T18:43:25.536Z,6.92
2018-02-01T18:45:53.549Z,6.96
2018-02-01T18:48:22.198Z,7.02
2018-02-01T18:50:50.083Z,7.00
2018-02-01T18:53:18.048Z,7.04
2018-02-01T18:55:45.971Z,7.01
2018-02-01T18:58:14.596Z,7.00
2018-02-01T19:00:42.812Z,6.97
2018-02-01T19:03:10.782Z,6.98
2018-02-01T19:05:38.899Z,6.92
2018-02-01T19:08:06.911Z,6.87
2018-02-01T19:10:34.807Z,6.79
2018-02-01T19:13:02.709Z,6.75
2018-02-01T19:15:30.781Z,6.72
2018-02-01T19:17:59.515Z,6.67
2018-02-01T19:20:28.492Z,6.61
2018-02-01T19:22:56.478Z,6.63
2018-02-01T19:25:24.389Z,6.66
2018-02-01T19:27:53.181Z,6.72
2018-02-01T19:30:21.237Z,6.78
2018-02-01T19:32:49.111Z,6.85
2018-02-01T19:35:17.001Z,6.89
2018-02-01T19:37:44.963Z,6.86
2018-02-01T19:40:13.086Z,6.86
2018-02-01T19:42:41.043Z,6.80
2018-02-01T19:45:09.003Z,6.69
2018-02-01T19:47:36.977Z,6.63
2018-02-01T19:50:04.960Z,6.56
2018-02-01T19:52:33.283Z,6.45
2018-02-01T19:55:01.266Z,6.35
2018-02-01T19:57:29.234Z,6.30
2018-02-01T19:59:57.313Z,6.23
2018-02-01T20:02:25.288Z,6.24
2018-02-01T20:04:53.201Z,6.29
2018-02-01T20:07:21.141Z,6.34
2018-02-01T20:09:49.060Z,6.31
2018-02-01T20:12:17.051Z,6.30
2018-02-01T20:14:45.014Z,6.26
2018-02-01T20:17:12.956Z,6.25
2018-02-01T20:19:40.874Z,6.19
2018-02-01T20:22:09.430Z,6.22
2018-02-01T20:24:37.356Z,6.24
2018-02-01T20:27:05.314Z,6.28
2018-02-01T20:29:33.297Z,6.23
2018-02-01T20:32:01.188Z,6.26
2018-02-01T20:34:29.071Z,6.31
2018-02-01T20:36:57.020Z,6.38
2018-02-01T20:39:24.908Z,6.48
2018-02-01T20:41:52.800Z,6.56
2018-02-01T20:44:21.691Z,6.63
2018-02-01T20:46:49.848Z,6.73
2018-02-01T20:49:17.781Z,6.79
2018-02-01T20:51:45.724Z,6.87
2018-02-01T20:54:13.615Z,6.88
2018-02-01T20:56:41.502Z,6.88
2018-02-01T20:59:09.528Z,6.82
2018-02-01T21:01:37.550Z,6.77
2018-02-01T21:04:05.432Z,6.69
2018-02-01T21:06:33.676Z,6.61
2018-02-01T21:09:02.440Z,6.54
2018-02-01T21:11:30.317Z,6.52
2018-02-01T21:13:58.290Z,6.50
2018-02-01T21:16:26.145Z,6.45
2018-02-01T21:18:54.019Z,6.39
2018-02-01T21:21:21.943Z,6.32
2018-02-01T21:23:49.939Z,6.31
2018-02-01T21:26:17.871Z,6.33
2018-02-01T21:28:45.796Z,6.29
2018-02-01T21:31:13.691Z,6.25
2018-02-01T21:33:41.582Z,6.20
2018-02-01T21:36:10.050Z,6.17
2018-02-01T21:38:37.955Z,6.11
2018-02-01T21:41:05.816Z,6.10
2018-02-01T21:46:01.172Z,6.09
2018-02-01T21:48:29.113Z,6.08
2018-02-01T21:50:57.041Z,6.06
2018-02-01T21:53:24.965Z,6.05
2018-02-01T21:55:52.853Z,6.00
2018-02-01T21:58:20.756Z,5.95
2018-02-01T22:00:48.625Z,5.91
2018-02-01T22:03:16.472Z,5.91
2018-02-01T22:05:44.394Z,5.95
2018-02-01T22:08:12.337Z,6.01
2018-02-01T22:10:40.995Z,6.03
2018-02-01T22:13:09.123Z,6.07
2018-02-01T22:15:36.981Z,6.13
2018-02-01T22:18:04.835Z,6.16
2018-02-01T22:20:32.596Z,6.18
2018-02-01T22:23:00.188Z,6.16
2018-02-01T22:25:27.972Z,6.12
2018-02-01T22:27:55.688Z,6.01
2018-02-01T22:30:23.301Z,5.93
2018-02-01T22:32:50.880Z,5.88
2018-02-01T22:35:18.500Z,5.84
2018-02-01T22:37:46.094Z,5.82
2018-02-01T22:40:13.697Z,5.81
2018-02-01T22:42:41.561Z,5.82
2018-02-01T22:45:09.131Z,5.80
2018-02-01T22:47:36.777Z,5.77
2018-02-01T22:50:04.434Z,5.77
2018-02-01T22:52:32.016Z,5.79
2018-02-01T22:54:59.607Z,5.82
2018-02-01T22:57:27.560Z,5.84
2018-02-01T22:59:55.147Z,5.82
2018-02-01T23:02:22.785Z,5.82
2018-02-01T23:04:50.623Z,5.85
2018-02-01T23:07:18.399Z,5.93
2018-02-01T23:09:45.978Z,6.02
2018-02-01T23:12:13.626Z,6.13
2018-02-01T23:14:41.274Z,6.30
2018-02-01T23:17:09.745Z,6.46
2018-02-01T23:19:37.479Z,6.60
2018-02-01T23:22:05.113Z,6.69
2018-02-01T23:24:32.717Z,6.77
2018-02-01T23:27:00.691Z,6.91
2018-02-01T23:29:28.341Z,7.06
2018-02-01T23:31:55.921Z,7.22
2018-02-01T23:34:23.752Z,7.39
2018-02-01T23:36:51.316Z,7.52
2018-02-01T23:39:18.884Z,7.65
2018-02-01T23:41:46.533Z,7.77
2018-02-01T23:44:14.117Z,7.85
2018-02-01T23:46:41.694Z,7.93
2018-02-01T23:49:09.315Z,7.99
2018-02-01T23:51:36.892Z,8.03
2018-02-01T23:56:37.337Z,8.15
2018-02-01T23:59:04.917Z,8.19
